createdAt,value
2022-12-23T00:00:08.942Z,98458.63
2022-12-23T00:00:20.936Z,98461.91
2022-12-23T00:00:32.935Z,98455.84
2022-12-23T00:00:45.052Z,98459.72
2022-12-23T00:01:01.995Z,98460.13
2022-12-23T00:01:15.552Z,98463.56
2022-12-23T00:01:28.138Z,98459.88
2022-12-23T00:01:40.181Z,98458.97
2022-12-23T00:01:57.236Z,98460.72
2022-12-23T00:02:09.377Z,98465.91
2022-12-23T00:02:21.592Z,98457.34
2022-12-23T00:02:33.825Z,98455.44
2022-12-23T00:02:46.334Z,98454.53
2022-12-23T00:02:58.487Z,98455.09
2022-12-23T00:03:10.651Z,98462.81
2022-12-23T00:03:23.387Z,98458.38
2022-12-23T00:03:35.698Z,98460.91
2022-12-23T00:03:47.781Z,98465.28
2022-12-23T00:03:59.806Z,98454.78
2022-12-23T00:04:11.959Z,98453.84
2022-12-23T00:04:24.063Z,98457.22
2022-12-23T00:04:36.047Z,98453.69
2022-12-23T00:04:47.988Z,98457.38
2022-12-23T00:04:59.921Z,98453.09
2022-12-23T00:05:12.402Z,98453.94
2022-12-23T00:05:24.402Z,98458.31
2022-12-23T00:05:39.760Z,98452.16
2022-12-23T00:05:52.487Z,98455.72
2022-12-23T00:06:12.155Z,98461.81
2022-12-23T00:06:24.210Z,98457.56
2022-12-23T00:06:36.161Z,98459.31
2022-12-23T00:06:48.076Z,98461.06
2022-12-23T00:06:59.968Z,98462.06
2022-12-23T00:07:11.903Z,98454.34
2022-12-23T00:07:23.887Z,98456.19
2022-12-23T00:07:36.159Z,98458.03
2022-12-23T00:07:48.144Z,98456.38
2022-12-23T00:08:00.115Z,98459.03
2022-12-23T00:08:12.073Z,98454.84
2022-12-23T00:08:25.439Z,98454.84
2022-12-23T00:08:37.769Z,98463.56
2022-12-23T00:08:49.788Z,98458.38
2022-12-23T00:09:01.745Z,98451.66
2022-12-23T00:09:13.913Z,98457.34
2022-12-23T00:09:25.884Z,98459.19
2022-12-23T00:09:37.861Z,98464.41
2022-12-23T00:09:49.853Z,98461.88
2022-12-23T00:10:02.739Z,98459.34
2022-12-23T00:10:14.703Z,98462.88
2022-12-23T00:10:26.697Z,98463.03
2022-12-23T00:10:39.836Z,98465.00
2022-12-23T00:10:53.495Z,98464.09
2022-12-23T00:11:13.194Z,98465.19
2022-12-23T00:11:26.023Z,98465.19
2022-12-23T00:11:57.874Z,98458.28
2022-12-23T00:12:28.272Z,98459.06
2022-12-23T00:12:58.567Z,98459.81
2022-12-23T00:13:30.398Z,98460.56
2022-12-23T00:14:01.239Z,98452.78
2022-12-23T00:14:31.638Z,98461.31
2022-12-23T00:15:01.991Z,98456.13
2022-12-23T00:15:14.649Z,98452.47
2022-12-23T00:15:26.677Z,98451.47
2022-12-23T00:15:38.579Z,98450.53
2022-12-23T00:15:50.534Z,98458.25
2022-12-23T00:16:04.139Z,98456.50
2022-12-23T00:16:16.559Z,98457.25
2022-12-23T00:16:28.985Z,98453.81
2022-12-23T00:16:41.057Z,98456.50
2022-12-23T00:16:53.296Z,98455.59
2022-12-23T00:17:17.564Z,98454.75
2022-12-23T00:17:36.262Z,98458.50
2022-12-23T00:17:48.285Z,98459.34
2022-12-23T00:18:00.201Z,98460.34
2022-12-23T00:18:12.161Z,98458.28
2022-12-23T00:18:24.081Z,98458.28
2022-12-23T00:18:36.504Z,98457.31
2022-12-23T00:18:48.543Z,98460.81
2022-12-23T00:19:00.645Z,98454.72
2022-12-23T00:19:12.587Z,98459.06
2022-12-23T00:19:24.615Z,98455.63
2022-12-23T00:19:36.523Z,98457.31
2022-12-23T00:19:48.543Z,98453.84
2022-12-23T00:20:01.061Z,98457.22
2022-12-23T00:20:14.925Z,98456.31
2022-12-23T00:20:26.876Z,98451.13
2022-12-23T00:20:38.905Z,98451.94
2022-12-23T00:20:57.732Z,98449.41
2022-12-23T00:21:12.859Z,98449.34
2022-12-23T00:21:24.777Z,98451.13
2022-12-23T00:21:36.863Z,98454.47
2022-12-23T00:21:48.885Z,98450.19
2022-12-23T00:22:00.892Z,98452.69
2022-12-23T00:22:12.832Z,98455.22
2022-12-23T00:22:44.924Z,98453.47
2022-12-23T00:23:05.577Z,98452.47
2022-12-23T00:23:17.513Z,98455.16
2022-12-23T00:23:33.164Z,98455.16
2022-12-23T00:23:47.831Z,98453.31
2022-12-23T00:23:59.760Z,98455.84
2022-12-23T00:24:12.121Z,98456.66
2022-12-23T00:24:24.226Z,98455.84
2022-12-23T00:24:36.168Z,98455.84
2022-12-23T00:24:48.343Z,98456.66
2022-12-23T00:25:00.304Z,98447.09
2022-12-23T00:25:13.617Z,98447.09
2022-12-23T00:25:41.491Z,98453.13
2022-12-23T00:25:55.723Z,98460.09
2022-12-23T00:26:12.652Z,98451.47
2022-12-23T00:26:27.216Z,98448.94
2022-12-23T00:26:39.152Z,98445.59
2022-12-23T00:26:51.235Z,98451.78
2022-12-23T00:27:03.180Z,98452.63
2022-12-23T00:27:15.116Z,98447.44
2022-12-23T00:27:27.113Z,98450.19
2022-12-23T00:27:39.636Z,98445.91
2022-12-23T00:28:01.380Z,98445.91
2022-12-23T00:28:13.476Z,98439.78
2022-12-23T00:28:27.513Z,98452.69
2022-12-23T00:28:39.510Z,98454.47
2022-12-23T00:28:52.059Z,98448.44
2022-12-23T00:29:04.004Z,98447.50
2022-12-23T00:29:15.950Z,98446.06
2022-12-23T00:29:28.005Z,98448.22
2022-12-23T00:29:40.000Z,98445.72
2022-12-23T00:29:51.949Z,98441.34
2022-12-23T00:30:05.990Z,98443.03
2022-12-23T00:30:18.117Z,98442.13
2022-12-23T00:30:30.107Z,98439.53
2022-12-23T00:30:48.180Z,98438.59
2022-12-23T00:31:07.388Z,98439.34
2022-12-23T00:31:21.302Z,98444.53
2022-12-23T00:31:33.397Z,98434.47
2022-12-23T00:31:45.538Z,98436.09
2022-12-23T00:31:57.640Z,98443.88
2022-12-23T00:32:10.021Z,98442.13
2022-12-23T00:32:22.021Z,98441.19
2022-12-23T00:32:33.976Z,98441.19
2022-12-23T00:32:45.901Z,98434.31
2022-12-23T00:32:58.821Z,98438.69
2022-12-23T00:33:10.714Z,98434.66
2022-12-23T00:33:25.843Z,98438.00
2022-12-23T00:33:40.685Z,98430.97
2022-12-23T00:33:54.191Z,98443.88
2022-12-23T00:34:06.172Z,98437.81
2022-12-23T00:34:18.161Z,98439.53
2022-12-23T00:34:30.125Z,98438.75
2022-12-23T00:34:42.093Z,98441.19
2022-12-23T00:34:54.031Z,98439.44
2022-12-23T00:35:06.374Z,98441.19
2022-12-23T00:35:18.305Z,98439.34
2022-12-23T00:35:32.163Z,98438.44
2022-12-23T00:35:45.187Z,98440.22
2022-12-23T00:35:57.216Z,98435.84
2022-12-23T00:36:17.989Z,98433.16
2022-12-23T00:36:30.642Z,98439.19
2022-12-23T00:36:43.052Z,98440.84
2022-12-23T00:36:55.032Z,98432.16
2022-12-23T00:37:07.001Z,98429.56
2022-12-23T00:37:18.957Z,98439.19
2022-12-23T00:37:31.254Z,98435.97
2022-12-23T00:37:43.177Z,98437.00
2022-12-23T00:37:55.103Z,98435.97
2022-12-23T00:38:07.074Z,98440.28
2022-12-23T00:38:38.979Z,98436.66
2022-12-23T00:39:10.299Z,98444.22
2022-12-23T00:39:40.606Z,98444.53
2022-12-23T00:40:11.042Z,98444.41
2022-12-23T00:40:41.375Z,98442.03
2022-12-23T00:41:11.816Z,98435.41
2022-12-23T00:41:42.632Z,98440.66
2022-12-23T00:42:13.016Z,98438.00
2022-12-23T00:42:43.446Z,98437.25
2022-12-23T00:42:55.478Z,98440.59
2022-12-23T00:43:07.579Z,98443.19
2022-12-23T00:43:19.546Z,98441.34
2022-12-23T00:43:31.482Z,98437.00
2022-12-23T00:43:43.365Z,98437.81
2022-12-23T00:43:55.401Z,98434.31
2022-12-23T00:44:07.312Z,98435.16
2022-12-23T00:44:19.350Z,98436.84
2022-12-23T00:44:31.596Z,98437.69
2022-12-23T00:44:43.637Z,98437.69
2022-12-23T00:45:15.346Z,98434.31
2022-12-23T00:45:27.373Z,98433.63
2022-12-23T00:45:39.399Z,98436.31
2022-12-23T00:45:51.381Z,98435.41
2022-12-23T00:46:03.402Z,98431.88
2022-12-23T00:46:15.555Z,98433.56
2022-12-23T00:46:28.312Z,98438.00
2022-12-23T00:46:40.532Z,98437.16
2022-12-23T00:46:52.538Z,98439.41
2022-12-23T00:47:04.563Z,98440.16
2022-12-23T00:47:36.485Z,98442.75
2022-12-23T00:48:07.020Z,98438.31
2022-12-23T00:48:37.460Z,98442.13
2022-12-23T00:49:07.688Z,98444.16
2022-12-23T00:49:39.626Z,98450.25
2022-12-23T00:49:51.536Z,98438.34
2022-12-23T00:50:03.687Z,98443.47
2022-12-23T00:50:15.756Z,98439.09
2022-12-23T00:50:30.138Z,98446.00
2022-12-23T00:50:42.088Z,98442.47
2022-12-23T00:50:54.031Z,98437.44
2022-12-23T00:51:06.111Z,98446.13
2022-12-23T00:51:18.020Z,98440.94
2022-12-23T00:51:30.068Z,98443.59
2022-12-23T00:51:41.989Z,98445.28
2022-12-23T00:51:53.948Z,98446.13
2022-12-23T00:52:08.258Z,98446.13
2022-12-23T00:52:20.184Z,98449.84
2022-12-23T00:52:32.111Z,98435.34
2022-12-23T00:52:44.034Z,98443.13
2022-12-23T00:52:56.863Z,98443.19
2022-12-23T00:53:08.811Z,98446.72
2022-12-23T00:53:21.115Z,98451.91
2022-12-23T00:53:33.071Z,98446.72
2022-12-23T00:53:45.004Z,98442.44
2022-12-23T00:53:57.110Z,98449.38
2022-12-23T00:54:09.137Z,98446.72
2022-12-23T00:54:21.207Z,98444.88
2022-12-23T00:54:33.227Z,98448.56
2022-12-23T00:54:45.212Z,98445.03
2022-12-23T00:54:57.181Z,98444.13
2022-12-23T00:55:09.341Z,98452.69
2022-12-23T00:55:21.578Z,98444.88
2022-12-23T00:55:33.541Z,98448.38
2022-12-23T00:55:47.743Z,98445.03
2022-12-23T00:55:59.707Z,98447.94
2022-12-23T00:56:11.608Z,98452.06
2022-12-23T00:56:23.615Z,98452.22
2022-12-23T00:56:35.694Z,98447.78
2022-12-23T00:56:47.635Z,98446.88
2022-12-23T00:57:00.358Z,98444.25
2022-12-23T00:57:12.373Z,98446.72
2022-12-23T00:57:24.267Z,98450.22
2022-12-23T00:57:36.143Z,98447.56
2022-12-23T00:57:48.190Z,98446.03
2022-12-23T00:58:00.101Z,98445.97
2022-12-23T00:58:12.118Z,98448.56
2022-12-23T00:58:24.068Z,98447.56
2022-12-23T00:58:36.040Z,98444.88
2022-12-23T00:58:47.989Z,98450.91
2022-12-23T00:59:00.371Z,98455.34
2022-12-23T00:59:12.671Z,98452.81
2022-12-23T00:59:24.814Z,98445.03
2022-12-23T00:59:36.772Z,98450.53
2022-12-23T00:59:48.750Z,98451.28
2022-12-23T01:00:00.637Z,98448.88
2022-12-23T01:00:13.223Z,98452.53
2022-12-23T01:00:45.241Z,98444.81
2022-12-23T01:01:15.652Z,98448.34
2022-12-23T01:01:46.305Z,98448.88
2022-12-23T01:02:17.216Z,98454.97
2022-12-23T01:02:47.940Z,98448.25
2022-12-23T01:03:18.506Z,98450.19
2022-12-23T01:03:49.385Z,98451.59
2022-12-23T01:04:21.398Z,98456.59
2022-12-23T01:04:52.285Z,98458.94
2022-12-23T01:05:23.238Z,98460.47
2022-12-23T01:05:38.907Z,98451.91
2022-12-23T01:05:50.831Z,98456.47
2022-12-23T01:06:03.373Z,98456.47
2022-12-23T01:06:16.096Z,98456.59
2022-12-23T01:06:28.191Z,98459.00
2022-12-23T01:06:40.111Z,98459.38
2022-12-23T01:06:52.107Z,98457.41
2022-12-23T01:07:05.165Z,98456.41
2022-12-23T01:07:17.078Z,98451.22
2022-12-23T01:07:29.022Z,98458.94
2022-12-23T01:07:42.409Z,98459.09
2022-12-23T01:07:55.969Z,98458.13
2022-12-23T01:08:12.123Z,98460.59
2022-12-23T01:08:24.173Z,98459.94
2022-12-23T01:08:36.830Z,98455.72
2022-12-23T01:08:48.717Z,98457.56
2022-12-23T01:09:00.644Z,98460.09
2022-12-23T01:09:12.616Z,98459.19
2022-12-23T01:09:25.095Z,98461.91
2022-12-23T01:09:37.075Z,98458.31
2022-12-23T01:09:49.035Z,98455.72
2022-12-23T01:10:01.005Z,98460.91
2022-12-23T01:10:13.103Z,98462.63
2022-12-23T01:10:25.069Z,98461.59
2022-12-23T01:10:40.973Z,98460.47
2022-12-23T01:10:53.284Z,98457.81
2022-12-23T01:11:07.969Z,98453.75
2022-12-23T01:11:19.905Z,98460.53
2022-12-23T01:11:31.904Z,98458.78
2022-12-23T01:11:43.906Z,98453.88
2022-12-23T01:11:55.891Z,98458.88
2022-12-23T01:12:07.920Z,98459.78
2022-12-23T01:12:19.929Z,98453.56
2022-12-23T01:12:31.916Z,98455.41
2022-12-23T01:12:43.850Z,98458.88
2022-12-23T01:12:55.792Z,98460.47
2022-12-23T01:13:07.946Z,98455.41
2022-12-23T01:13:20.286Z,98447.72
2022-12-23T01:13:33.045Z,98444.19
2022-12-23T01:13:45.092Z,98454.50
2022-12-23T01:13:58.402Z,98457.41
2022-12-23T01:14:11.561Z,98446.88
2022-12-23T01:14:24.192Z,98453.00
2022-12-23T01:14:36.523Z,98453.75
2022-12-23T01:14:48.783Z,98450.16
2022-12-23T01:15:00.785Z,98444.75
2022-12-23T01:15:12.717Z,98447.13
2022-12-23T01:15:24.711Z,98450.50
2022-12-23T01:15:36.650Z,98446.31
2022-12-23T01:15:48.628Z,98449.66
2022-12-23T01:16:16.741Z,98456.53
2022-12-23T01:16:29.742Z,98440.47
2022-12-23T01:16:42.013Z,98443.13
2022-12-23T01:16:54.101Z,98448.56
2022-12-23T01:17:07.647Z,98460.78
2022-12-23T01:17:19.714Z,98449.00
2022-12-23T01:17:31.714Z,98450.38
2022-12-23T01:17:43.636Z,98444.88
2022-12-23T01:17:55.911Z,98455.28
2022-12-23T01:18:08.101Z,98452.53
2022-12-23T01:18:20.006Z,98458.50
2022-12-23T01:18:34.231Z,98450.63
2022-12-23T01:18:46.226Z,98444.28
2022-12-23T01:18:58.709Z,98445.81
2022-12-23T01:19:11.919Z,98442.13
2022-12-23T01:19:24.005Z,98451.63
2022-12-23T01:19:36.365Z,98454.06
2022-12-23T01:19:48.307Z,98461.09
2022-12-23T01:20:00.285Z,98457.13
2022-12-23T01:20:12.771Z,98452.47
2022-12-23T01:20:25.075Z,98459.25
2022-12-23T01:20:40.942Z,98454.06
2022-12-23T01:20:52.850Z,98457.72
2022-12-23T01:21:08.020Z,98471.66
2022-12-23T01:21:20.071Z,98463.63
2022-12-23T01:21:32.438Z,98456.56
2022-12-23T01:21:44.440Z,98455.13
2022-12-23T01:21:56.405Z,98450.09
2022-12-23T01:22:08.394Z,98445.81
2022-12-23T01:22:20.422Z,98456.13
2022-12-23T01:22:32.344Z,98454.22
2022-12-23T01:22:44.314Z,98455.88
2022-12-23T01:22:56.289Z,98453.28
2022-12-23T01:23:08.332Z,98450.69
2022-12-23T01:23:20.454Z,98453.91
2022-12-23T01:23:33.495Z,98451.31
2022-12-23T01:23:45.541Z,98451.13
2022-12-23T01:23:57.575Z,98448.41
2022-12-23T01:24:09.658Z,98452.38
2022-12-23T01:24:21.703Z,98447.72
2022-12-23T01:24:33.886Z,98447.78
2022-12-23T01:24:45.921Z,98454.66
2022-12-23T01:24:57.812Z,98448.63
2022-12-23T01:25:09.971Z,98455.69
2022-12-23T01:25:21.896Z,98450.56
2022-12-23T01:25:33.888Z,98454.06
2022-12-23T01:25:45.965Z,98454.75
2022-12-23T01:25:59.535Z,98461.38
2022-12-23T01:26:11.706Z,98461.47
2022-12-23T01:26:23.969Z,98451.75
2022-12-23T01:26:35.960Z,98452.59
2022-12-23T01:26:48.033Z,98449.91
2022-12-23T01:27:00.284Z,98453.19
2022-12-23T01:27:12.391Z,98453.09
2022-12-23T01:27:24.398Z,98452.00
2022-12-23T01:27:36.349Z,98454.72
2022-12-23T01:27:48.374Z,98450.28
2022-12-23T01:28:00.439Z,98452.00
2022-12-23T01:28:12.572Z,98459.81
2022-12-23T01:28:25.128Z,98449.41
2022-12-23T01:28:37.196Z,98458.91
2022-12-23T01:28:53.433Z,98455.16
2022-12-23T01:29:05.450Z,98461.78
2022-12-23T01:29:17.417Z,98452.91
2022-12-23T01:29:29.792Z,98463.03
2022-12-23T01:29:41.715Z,98462.88
2022-12-23T01:29:53.681Z,98456.88
2022-12-23T01:30:06.439Z,98455.66
2022-12-23T01:30:18.455Z,98458.44
2022-12-23T01:30:30.427Z,98445.44
2022-12-23T01:30:42.395Z,98452.47
2022-12-23T01:30:54.314Z,98452.47
2022-12-23T01:31:10.020Z,98454.97
2022-12-23T01:31:23.254Z,98454.00
2022-12-23T01:31:35.234Z,98453.81
2022-12-23T01:31:47.614Z,98449.69
2022-12-23T01:31:59.792Z,98456.13
2022-12-23T01:32:11.962Z,98450.78
2022-12-23T01:32:23.956Z,98462.09
2022-12-23T01:32:36.072Z,98461.78
2022-12-23T01:32:48.096Z,98461.03
2022-12-23T01:33:00.341Z,98449.94
2022-12-23T01:33:12.245Z,98450.63
2022-12-23T01:33:24.314Z,98450.63
2022-12-23T01:33:36.273Z,98447.09
2022-12-23T01:33:48.319Z,98466.06
2022-12-23T01:34:00.307Z,98454.75
2022-12-23T01:34:12.475Z,98462.94
2022-12-23T01:34:24.450Z,98465.31
2022-12-23T01:34:37.656Z,98457.50
2022-12-23T01:34:49.812Z,98458.66
2022-12-23T01:35:01.742Z,98462.69
2022-12-23T01:35:13.852Z,98467.13
2022-12-23T01:35:25.824Z,98462.69
2022-12-23T01:35:37.719Z,98455.66
2022-12-23T01:35:49.662Z,98456.50
2022-12-23T01:36:07.066Z,98453.25
2022-12-23T01:36:19.403Z,98454.06
2022-12-23T01:36:31.380Z,98460.09
2022-12-23T01:36:43.494Z,98462.69
2022-12-23T01:36:55.458Z,98449.78
2022-12-23T01:37:07.491Z,98458.50
2022-12-23T01:37:19.405Z,98450.03
2022-12-23T01:37:31.488Z,98451.41
2022-12-23T01:37:43.449Z,98458.00
2022-12-23T01:37:55.373Z,98460.59
2022-12-23T01:38:07.345Z,98456.03
2022-12-23T01:38:19.334Z,98448.91
2022-12-23T01:38:31.435Z,98455.00
2022-12-23T01:38:43.426Z,98451.50
2022-12-23T01:38:56.421Z,98457.69
2022-12-23T01:39:08.356Z,98453.50
2022-12-23T01:39:20.328Z,98460.72
2022-12-23T01:39:32.315Z,98461.63
2022-12-23T01:39:44.335Z,98459.84
2022-12-23T01:39:56.292Z,98463.13
2022-12-23T01:40:09.328Z,98457.19
2022-12-23T01:40:21.281Z,98463.97
2022-12-23T01:40:37.515Z,98474.47
2022-12-23T01:40:50.772Z,98459.84
2022-12-23T01:41:02.732Z,98458.88
2022-12-23T01:41:45.711Z,98465.47
2022-12-23T01:42:16.141Z,98458.03
2022-12-23T01:42:47.531Z,98463.41
2022-12-23T01:42:59.575Z,98460.63
2022-12-23T01:43:16.843Z,98470.47
2022-12-23T01:43:51.940Z,98465.59
2022-12-23T01:44:42.745Z,98460.22
2022-12-23T01:45:04.428Z,98450.84
2022-12-23T01:45:19.093Z,98464.41
2022-12-23T01:45:32.697Z,98455.28
2022-12-23T01:45:45.004Z,98460.47
2022-12-23T01:45:57.077Z,98449.25
2022-12-23T01:46:09.023Z,98453.78
2022-12-23T01:46:21.083Z,98445.63
2022-12-23T01:46:33.131Z,98464.59
2022-12-23T01:46:45.083Z,98449.16
2022-12-23T01:46:57.018Z,98453.03
2022-12-23T01:47:14.753Z,98454.63
2022-12-23T01:47:41.590Z,98467.09
2022-12-23T01:47:56.410Z,98453.34
2022-12-23T01:48:22.748Z,98443.28
2022-12-23T01:48:34.883Z,98458.06
2022-12-23T01:48:50.830Z,98462.50
2022-12-23T01:49:02.754Z,98468.63
2022-12-23T01:49:14.730Z,98460.91
2022-12-23T01:49:26.850Z,98458.31
2022-12-23T01:49:40.008Z,98458.88
2022-12-23T01:49:57.408Z,98453.34
2022-12-23T01:50:23.571Z,98451.69
2022-12-23T01:50:40.277Z,98459.91
2022-12-23T01:51:28.557Z,98450.84
2022-12-23T01:51:40.503Z,98459.63
2022-12-23T01:51:52.461Z,98463.75
2022-12-23T01:52:04.457Z,98457.31
2022-12-23T01:52:16.728Z,98463.53
2022-12-23T01:52:29.867Z,98458.06
2022-12-23T01:52:55.881Z,98466.53
2022-12-23T01:53:16.848Z,98462.91
2022-12-23T01:53:33.086Z,98472.75
2022-12-23T01:53:48.908Z,98462.34
2022-12-23T01:54:02.115Z,98463.44
2022-12-23T01:54:14.057Z,98464.44
2022-12-23T01:54:27.760Z,98464.69
2022-12-23T01:54:41.675Z,98468.94
2022-12-23T01:54:55.097Z,98469.88
2022-12-23T01:55:07.796Z,98473.09
2022-12-23T01:55:25.534Z,98460.72
2022-12-23T01:56:00.448Z,98476.28
2022-12-23T01:56:36.029Z,98475.50
2022-12-23T01:56:48.449Z,98475.50
2022-12-23T01:57:00.421Z,98479.81
2022-12-23T01:57:12.769Z,98465.09
2022-12-23T01:57:24.967Z,98469.47
2022-12-23T01:57:41.815Z,98479.97
2022-12-23T01:57:58.947Z,98469.63
2022-12-23T01:58:14.615Z,98476.34
2022-12-23T01:58:32.128Z,98474.69
2022-12-23T01:58:58.131Z,98477.34
2022-12-23T01:59:34.088Z,98475.44
2022-12-23T02:00:04.504Z,98467.78
2022-12-23T02:00:35.346Z,98474.41
2022-12-23T02:01:05.635Z,98473.16
2022-12-23T02:01:36.616Z,98479.06
2022-12-23T02:02:07.376Z,98474.09
2022-12-23T02:02:40.145Z,98482.06
2022-12-23T02:03:11.262Z,98486.69
2022-12-23T02:03:41.760Z,98475.50
2022-12-23T02:03:59.210Z,98488.25
2022-12-23T02:04:15.816Z,98482.97
2022-12-23T02:04:27.771Z,98487.09
2022-12-23T02:04:39.812Z,98490.63
2022-12-23T02:04:52.820Z,98450.75
2022-12-23T02:05:05.074Z,98482.16
2022-12-23T02:05:17.449Z,98480.03
2022-12-23T02:05:29.645Z,98497.91
2022-12-23T02:05:44.720Z,98497.84
2022-12-23T02:06:18.304Z,98480.72
2022-12-23T02:06:57.628Z,98511.44
2022-12-23T02:07:29.881Z,98481.56
2022-12-23T02:08:01.668Z,98495.66
2022-12-23T02:08:35.047Z,98504.06
2022-12-23T02:09:05.410Z,98491.63
2022-12-23T02:09:19.073Z,98507.22
2022-12-23T02:09:33.810Z,98496.34
2022-12-23T02:09:45.819Z,98489.19
2022-12-23T02:09:58.396Z,98492.78
2022-12-23T02:10:10.923Z,98497.91
2022-12-23T02:10:30.944Z,98488.44
2022-12-23T02:11:08.844Z,98493.47
2022-12-23T02:11:43.618Z,98484.75
2022-12-23T02:12:23.930Z,98496.81
2022-12-23T02:12:45.747Z,98499.63
2022-12-23T02:13:19.862Z,98502.22
2022-12-23T02:14:03.070Z,98496.06
2022-12-23T02:15:02.791Z,98496.66
2022-12-23T02:16:04.130Z,98485.38
2022-12-23T02:16:21.284Z,98502.91
2022-12-23T02:16:40.277Z,98512.09
2022-12-23T02:17:04.477Z,98510.59
2022-12-23T02:17:25.773Z,98497.16
2022-12-23T02:17:55.692Z,98498.84
2022-12-23T02:18:28.624Z,98517.84
2022-12-23T02:19:05.364Z,98512.97
2022-12-23T02:19:45.504Z,98508.59
2022-12-23T02:20:28.151Z,98502.97
2022-12-23T02:21:01.505Z,98502.91
2022-12-23T02:21:13.426Z,98511.75
2022-12-23T02:21:58.509Z,98515.47
2022-12-23T02:22:36.593Z,98505.38
2022-12-23T02:22:54.173Z,98506.13
2022-12-23T02:23:11.781Z,98526.88
2022-12-23T02:23:52.560Z,98501.88
2022-12-23T02:24:25.556Z,98528.06
2022-12-23T02:25:07.222Z,98547.22
2022-12-23T02:25:46.991Z,98520.84
2022-12-23T02:26:21.773Z,98505.31
2022-12-23T02:27:01.663Z,98512.09
2022-12-23T02:27:17.109Z,98533.69
2022-12-23T02:27:32.515Z,98547.03
2022-12-23T02:27:54.155Z,98534.88
2022-12-23T02:28:21.119Z,98521.59
2022-12-23T02:28:57.698Z,98518.16
2022-12-23T02:29:34.739Z,98557.38
2022-12-23T02:30:19.230Z,98519.34
2022-12-23T02:30:47.747Z,98532.28
2022-12-23T02:31:20.262Z,98522.69
2022-12-23T02:31:51.193Z,98532.28
2022-12-23T02:32:14.467Z,98530.72
2022-12-23T02:32:42.896Z,98534.34
2022-12-23T02:33:06.687Z,98534.19
2022-12-23T02:33:30.533Z,98534.28
2022-12-23T02:34:08.884Z,98540.50
2022-12-23T02:34:34.547Z,98540.66
2022-12-23T02:35:13.738Z,98532.16
2022-12-23T02:35:57.948Z,98544.59
2022-12-23T02:36:12.604Z,98538.31
2022-12-23T02:36:27.328Z,98536.63
2022-12-23T02:36:52.988Z,98538.47
2022-12-23T02:37:27.687Z,98545.53
2022-12-23T02:38:00.764Z,98540.50
2022-12-23T02:38:21.482Z,98548.38
2022-12-23T02:38:48.215Z,98540.84
2022-12-23T02:39:21.626Z,98550.03
2022-12-23T02:39:46.413Z,98547.53
2022-12-23T02:40:27.297Z,98555.78
2022-12-23T02:40:45.077Z,98548.53
2022-12-23T02:41:06.746Z,98551.75
2022-12-23T02:41:32.109Z,98557.28
2022-12-23T02:42:30.502Z,98555.38
2022-12-23T02:42:53.968Z,98564.50
2022-12-23T02:43:34.966Z,98552.41
2022-12-23T02:43:51.676Z,98565.09
2022-12-23T02:44:13.496Z,98563.81
2022-12-23T02:44:41.362Z,98563.06
2022-12-23T02:45:10.092Z,98554.34
2022-12-23T02:45:33.042Z,98566.34
2022-12-23T02:46:07.544Z,98554.94
2022-12-23T02:46:25.918Z,98556.53
2022-12-23T02:46:52.942Z,98548.53
2022-12-23T02:47:11.225Z,98565.84
2022-12-23T02:47:28.918Z,98556.78
2022-12-23T02:47:48.227Z,98557.63
2022-12-23T02:48:07.088Z,98568.88
2022-12-23T02:48:24.237Z,98564.34
2022-12-23T02:49:01.201Z,98566.84
2022-12-23T02:49:18.871Z,98565.59
2022-12-23T02:49:42.499Z,98570.38
2022-12-23T02:49:58.894Z,98562.50
2022-12-23T02:50:17.200Z,98566.19
2022-12-23T02:50:36.599Z,98567.69
2022-12-23T02:50:51.199Z,98567.84
2022-12-23T02:51:05.868Z,98566.19
2022-12-23T02:51:22.284Z,98570.38
2022-12-23T02:51:38.844Z,98568.78
2022-12-23T02:51:56.045Z,98565.84
2022-12-23T02:52:17.253Z,98569.13
2022-12-23T02:52:32.570Z,98567.19
2022-12-23T02:52:48.032Z,98565.66
2022-12-23T02:53:04.623Z,98570.03
2022-12-23T02:53:27.367Z,98567.50
2022-12-23T02:54:02.359Z,98576.00
2022-12-23T02:54:22.548Z,98565.66
2022-12-23T02:54:39.894Z,98561.13
2022-12-23T02:54:57.761Z,98564.56
2022-12-23T02:55:14.440Z,98565.00
2022-12-23T02:55:34.664Z,98572.06
2022-12-23T02:55:49.703Z,98554.09
2022-12-23T02:56:05.695Z,98572.38
2022-12-23T02:56:21.620Z,98566.84
2022-12-23T02:56:36.930Z,98565.00
2022-12-23T02:56:51.021Z,98564.16
2022-12-23T02:57:06.778Z,98562.25
2022-12-23T02:57:23.709Z,98570.97
2022-12-23T02:57:44.694Z,98541.50
2022-12-23T02:58:00.748Z,98557.03
2022-12-23T02:58:17.435Z,98565.00
2022-12-23T02:58:34.958Z,98571.16
2022-12-23T02:59:02.745Z,98551.16
2022-12-23T02:59:19.625Z,98568.34
2022-12-23T02:59:41.164Z,98564.50
2022-12-23T02:59:54.781Z,98570.72
2022-12-23T03:00:07.691Z,98560.13
2022-12-23T03:00:20.826Z,98575.59
2022-12-23T03:00:33.774Z,98568.53
2022-12-23T03:00:48.269Z,98570.31
2022-12-23T03:01:01.935Z,98565.00
2022-12-23T03:01:16.058Z,98573.00
2022-12-23T03:01:31.757Z,98585.81
2022-12-23T03:01:44.946Z,98577.09
2022-12-23T03:01:58.527Z,98573.41
2022-12-23T03:02:10.772Z,98574.56
2022-12-23T03:02:23.053Z,98573.91
2022-12-23T03:02:38.419Z,98563.81
2022-12-23T03:02:50.721Z,98574.25
2022-12-23T03:03:02.947Z,98569.13
2022-12-23T03:03:17.225Z,98572.38
2022-12-23T03:03:29.478Z,98589.53
2022-12-23T03:03:42.453Z,98571.75
2022-12-23T03:03:54.515Z,98573.41
2022-12-23T03:04:06.857Z,98566.53
2022-12-23T03:04:19.220Z,98580.47
2022-12-23T03:04:31.487Z,98561.63
2022-12-23T03:04:43.447Z,98577.59
2022-12-23T03:04:55.460Z,98581.72
2022-12-23T03:05:24.523Z,98570.97
2022-12-23T03:05:40.588Z,98564.00
2022-12-23T03:05:54.343Z,98571.91
2022-12-23T03:06:19.861Z,98571.91
2022-12-23T03:06:44.480Z,98589.53
2022-12-23T03:07:02.822Z,98579.09
2022-12-23T03:07:31.393Z,98569.78
2022-12-23T03:07:43.752Z,98565.00
2022-12-23T03:08:02.517Z,98565.00
2022-12-23T03:08:25.663Z,98555.44
2022-12-23T03:08:43.939Z,98573.91
2022-12-23T03:08:59.378Z,98573.75
2022-12-23T03:09:22.967Z,98580.81
2022-12-23T03:09:56.543Z,98577.59
2022-12-23T03:10:12.033Z,98571.75
2022-12-23T03:10:29.995Z,98581.16
2022-12-23T03:11:03.187Z,98574.75
2022-12-23T03:11:17.190Z,98582.31
2022-12-23T03:11:59.338Z,98583.66
2022-12-23T03:12:39.210Z,98584.34
2022-12-23T03:13:18.296Z,98579.66
2022-12-23T03:13:48.550Z,98580.84
2022-12-23T03:14:26.569Z,98577.81
2022-12-23T03:15:16.507Z,98586.53
2022-12-23T03:15:41.303Z,98583.94
2022-12-23T03:15:56.847Z,98597.97
2022-12-23T03:16:17.951Z,98581.50
2022-12-23T03:16:42.473Z,98590.22
2022-12-23T03:17:28.208Z,98581.16
2022-12-23T03:17:44.331Z,98588.22
2022-12-23T03:18:06.780Z,98596.94
2022-12-23T03:18:27.032Z,98583.19
2022-12-23T03:19:03.842Z,98594.41
2022-12-23T03:19:34.441Z,98597.13
2022-12-23T03:19:57.633Z,98589.88
2022-12-23T03:20:23.213Z,98586.38
2022-12-23T03:20:54.174Z,98586.78
2022-12-23T03:21:09.612Z,98592.34
2022-12-23T03:21:46.674Z,98601.16
2022-12-23T03:22:29.129Z,98600.84
2022-12-23T03:22:48.335Z,98602.69
2022-12-23T03:23:18.906Z,98585.69
2022-12-23T03:23:39.300Z,98596.13
2022-12-23T03:24:01.878Z,98598.31
2022-12-23T03:24:36.618Z,98600.31
2022-12-23T03:25:03.943Z,98603.66
2022-12-23T03:25:23.020Z,98596.59
2022-12-23T03:25:47.941Z,98606.94
2022-12-23T03:26:03.486Z,98587.22
2022-12-23T03:26:38.987Z,98602.00